Time;durP1;ratioP1;P1;durP2;ratioP2;P2;SDS_P1;SDS_P2;PMS_P1;PMS_P2;Temp;Humidity;BMP_temperature;BMP_pressure;BME280_temperature;BME280_humidity;BME280_pressure;Samples;Min_cycle;Max_cycle;Signal;HPM_P1;HPM_P2
2022/07/21 00:00:22;;;;;;;25.10;19.80;;;;;;;24.93;100.00;101619.13;7393713;19;20010;-44
2022/07/21 00:02:54;;;;;;;21.90;19.42;;;;;;;24.77;100.00;101619.69;7392284;19;20068;-49
2022/07/21 00:05:23;;;;;;;24.27;21.33;;;;;;;24.95;100.00;101611.78;7391080;19;20018;-45
2022/07/21 00:07:53;;;;;;;21.00;18.45;;;;;;;24.97;100.00;101601.75;7390549;19;20523;-46
2022/07/21 00:10:24;;;;;;;20.00;16.45;;;;;;;24.96;100.00;101618.84;7390676;19;20073;-46
2022/07/21 00:12:54;;;;;;;16.95;14.93;;;;;;;24.68;100.00;101621.38;7394632;19;20021;-44
2022/07/21 00:15:25;;;;;;;18.25;15.85;;;;;;;24.70;100.00;101624.78;7393482;19;20027;-45
2022/07/21 00:17:56;;;;;;;15.93;14.23;;;;;;;24.44;100.00;101637.00;7392181;19;20137;-44
2022/07/21 00:20:27;;;;;;;18.50;16.58;;;;;;;24.48;100.00;101635.75;7390239;19;20026;-43
2022/07/21 00:22:56;;;;;;;18.98;14.63;;;;;;;24.48;100.00;101633.91;7393730;19;20511;-48
2022/07/21 00:25:25;;;;;;;20.95;16.92;;;;;;;24.64;100.00;101640.56;7390422;19;20411;-44
2022/07/21 00:27:54;;;;;;;20.65;17.85;;;;;;;24.68;100.00;101642.81;7391565;19;20700;-43
2022/07/21 00:30:23;;;;;;;23.52;19.02;;;;;;;24.78;100.00;101642.00;7393450;19;20031;-45
2022/07/21 00:32:52;;;;;;;22.27;19.23;;;;;;;24.76;100.00;101636.78;7392097;19;20032;-44
2022/07/21 00:35:23;;;;;;;27.33;18.90;;;;;;;24.82;100.00;101630.84;7393484;19;20014;-44
2022/07/21 00:37:52;;;;;;;23.65;20.20;;;;;;;24.89;100.00;101631.13;7390794;19;20014;-46
2022/07/21 00:40:21;;;;;;;29.48;21.65;;;;;;;24.93;100.00;101629.00;7389637;19;20010;-44
2022/07/21 00:42:50;;;;;;;28.13;24.60;;;;;;;25.02;100.00;101630.84;7392779;19;20022;-46
2022/07/21 00:45:19;;;;;;;26.90;22.63;;;;;;;25.04;100.00;101620.81;7394455;19;20014;-44
2022/07/21 00:47:48;;;;;;;28.75;24.23;;;;;;;25.10;100.00;101616.69;7390459;19;20015;-44
2022/07/21 00:50:20;;;;;;;29.05;25.55;;;;;;;25.08;100.00;101624.91;7390232;19;20127;-45
2022/07/21 00:52:51;;;;;;;34.45;26.90;;;;;;;25.15;100.00;101625.19;7391972;19;20007;-44
2022/07/21 00:55:22;;;;;;;29.30;24.77;;;;;;;25.01;100.00;101621.94;7388483;19;20350;-44
2022/07/21 00:57:53;;;;;;;31.27;26.70;;;;;;;25.13;100.00;101622.63;7389729;19;20478;-45
2022/07/21 01:00:25;;;;;;;29.42;24.48;;;;;;;25.18;100.00;101630.25;7388382;19;20040;-44
2022/07/21 01:02:54;;;;;;;28.27;23.23;;;;;;;25.04;100.00;101624.34;7389048;19;20029;-45
2022/07/21 01:05:23;;;;;;;29.02;25.08;;;;;;;25.16;100.00;101630.41;7389651;19;20350;-43
2022/07/21 01:07:58;;;;;;;26.65;22.88;;;;;;;24.86;100.00;101618.03;7388255;19;20031;-44
2022/07/21 01:10:27;;;;;;;32.78;25.35;;;;;;;24.85;100.00;101610.97;7388637;19;20010;-45
2022/07/21 01:12:56;;;;;;;31.10;24.40;;;;;;;24.94;100.00;101604.72;7391065;19;20031;-45
2022/07/21 01:15:25;;;;;;;27.20;21.85;;;;;;;24.75;100.00;101588.69;7389425;19;20019;-43
2022/07/21 01:17:54;;;;;;;27.20;23.40;;;;;;;24.83;100.00;101586.09;7389369;19;20027;-44
2022/07/21 01:20:25;;;;;;;25.52;22.67;;;;;;;24.97;100.00;101593.72;7387731;19;20022;-45
2022/07/21 01:22:58;;;;;;;35.45;27.05;;;;;;;24.98;100.00;101594.56;7391389;19;20045;-51
2022/07/21 01:25:27;;;;;;;24.63;20.25;;;;;;;24.44;100.00;101592.28;7388828;19;20050;-48
2022/07/21 01:27:56;;;;;;;24.30;20.90;;;;;;;24.33;100.00;101589.78;7387795;19;20026;-45
2022/07/21 01:30:25;;;;;;;28.77;23.20;;;;;;;24.42;100.00;101583.56;7390573;19;20015;-46
2022/07/21 01:32:53;;;;;;;24.80;20.38;;;;;;;24.73;100.00;101596.88;7390696;19;20460;-45
2022/07/21 01:35:23;;;;;;;27.30;24.40;;;;;;;24.82;100.00;101597.84;7388151;19;20014;-47
2022/07/21 01:37:52;;;;;;;25.05;22.23;;;;;;;25.07;100.00;101601.75;7389100;19;20484;-49
2022/07/21 01:43:06;;;;;;;28.13;24.02;;;;;;;25.08;100.00;101605.28;7391324;19;20015;-49
2022/07/21 01:45:35;;;;;;;26.52;21.75;;;;;;;24.95;100.00;101603.75;7387961;19;20022;-49
2022/07/21 01:48:04;;;;;;;24.00;20.23;;;;;;;24.93;100.00;101607.56;7388132;19;20018;-46
2022/07/21 01:50:32;;;;;;;25.38;20.58;;;;;;;24.79;100.00;101608.84;7390961;19;20011;-48
2022/07/21 01:53:01;;;;;;;24.88;21.60;;;;;;;24.99;100.00;101604.31;7390161;19;20018;-45
2022/07/21 01:55:33;;;;;;;25.52;22.00;;;;;;;24.99;100.00;101613.19;7390810;19;20018;-46
2022/07/21 01:58:03;;;;;;;25.98;22.80;;;;;;;25.11;100.00;101605.00;7391793;19;20049;-46
2022/07/21 02:00:32;;;;;;;25.67;21.50;;;;;;;24.81;100.00;101585.41;7388621;19;20021;-44
2022/07/21 02:03:00;;;;;;;26.33;21.95;;;;;;;24.73;100.00;101590.63;7391914;19;20483;-45
2022/07/21 02:05:29;;;;;;;28.63;24.30;;;;;;;25.01;100.00;101592.44;7394715;19;20455;-45
2022/07/21 02:07:58;;;;;;;25.85;22.35;;;;;;;25.15;100.00;101590.31;7392469;19;20025;-46
2022/07/21 02:10:27;;;;;;;28.05;24.63;;;;;;;24.91;100.00;101588.09;7394782;19;20027;-48
2022/07/21 02:12:59;;;;;;;31.80;25.15;;;;;;;24.84;100.00;101591.31;7398110;19;20019;-47
2022/07/21 02:15:28;;;;;;;30.58;25.58;;;;;;;24.92;100.00;101587.13;7400003;19;20014;-46
2022/07/21 02:17:57;;;;;;;34.20;27.05;;;;;;;25.03;100.00;101586.94;7397228;19;20010;-47
2022/07/21 02:20:26;;;;;;;32.15;25.42;;;;;;;25.00;100.00;101582.72;7395137;19;20034;-49
2022/07/21 02:22:55;;;;;;;30.67;25.90;;;;;;;25.14;100.00;101577.88;7395886;19;20024;-48
2022/07/21 02:25:24;;;;;;;31.63;26.33;;;;;;;25.17;100.00;101572.22;7395486;19;20505;-47
2022/07/21 02:27:53;;;;;;;31.85;26.67;;;;;;;25.04;100.00;101575.22;7398120;19;20018;-48
2022/07/21 02:30:24;;;;;;;31.00;26.17;;;;;;;25.07;100.00;101569.56;7397182;19;20531;-51
2022/07/21 02:32:53;;;;;;;34.42;27.95;;;;;;;25.16;100.00;101579.44;7397758;19;20014;-49
2022/07/21 02:35:22;;;;;;;37.45;31.13;;;;;;;25.21;100.00;101579.00;7395157;19;20018;-47
2022/07/21 02:37:51;;;;;;;31.23;25.45;;;;;;;25.37;100.00;101575.72;7396846;19;20013;-46
2022/07/21 02:40:20;;;;;;;32.97;26.17;;;;;;;25.52;100.00;101582.31;7394691;19;20014;-48
2022/07/21 02:42:49;;;;;;;32.63;27.27;;;;;;;25.17;100.00;101589.16;7397377;19;20022;-50
2022/07/21 02:45:18;;;;;;;36.67;29.55;;;;;;;25.07;100.00;101587.50;7395839;19;20333;-50
2022/07/21 02:47:55;;;;;;;33.28;27.02;;;;;;;24.81;100.00;101588.94;7395752;19;20478;-48
2022/07/21 02:50:25;;;;;;;34.95;28.83;;;;;;;24.95;100.00;101576.09;7398853;19;20025;-47
2022/07/21 02:52:57;;;;;;;32.45;27.48;;;;;;;25.02;100.00;101572.69;7397128;19;20089;-47
2022/07/21 02:55:26;;;;;;;36.70;30.23;;;;;;;25.14;100.00;101569.84;7394348;19;20060;-48
2022/07/21 02:58:10;;;;;;;29.55;26.00;;;;;;;25.13;100.00;101571.69;7397585;19;20026;-51
2022/07/21 03:00:40;;;;;;;;;;;;;;;25.13;100.00;101577.03;7395328;19;20145;-51
2022/07/21 03:03:13;;;;;;;33.63;28.17;;;;;;;25.07;100.00;101572.25;7395545;19;19919;-48
2022/07/21 03:05:41;;;;;;;;;;;;;;;24.93;100.00;101570.88;7397502;19;20010;-51
2022/07/21 03:08:12;;;;;;;35.10;27.85;;;;;;;24.90;100.00;101581.03;7395032;19;19925;-48
2022/07/21 03:10:42;;;;;;;34.78;28.23;;;;;;;24.80;100.00;101575.69;7394438;19;20014;-49
2022/07/21 03:13:11;;;;;;;38.20;30.05;;;;;;;24.76;100.00;101568.91;7394630;19;20018;-47
2022/07/21 03:15:41;;;;;;;35.22;29.60;;;;;;;24.81;100.00;101570.16;7393479;19;20021;-50
2022/07/21 03:18:12;;;;;;;32.47;28.38;;;;;;;24.81;100.00;101572.84;7395486;19;20018;-51
2022/07/21 03:20:43;;;;;;;34.72;27.75;;;;;;;24.47;100.00;101561.69;7394592;19;20010;-52
2022/07/21 03:23:12;;;;;;;33.15;27.40;;;;;;;24.19;100.00;101567.75;7394838;19;20017;-49
2022/07/21 03:25:41;;;;;;;32.22;27.52;;;;;;;24.11;100.00;101556.03;7395727;19;20025;-50
2022/07/21 03:28:10;;;;;;;34.85;28.70;;;;;;;24.36;100.00;101566.22;7395282;19;20011;-52
2022/07/21 03:30:39;;;;;;;38.03;31.70;;;;;;;24.45;100.00;101571.72;7396697;19;20014;-51
2022/07/21 03:33:08;;;;;;;33.20;29.02;;;;;;;24.64;100.00;101568.22;7393176;19;20014;-50
2022/07/21 03:35:40;;;;;;;34.17;27.00;;;;;;;24.30;100.00;101568.59;7395732;19;20407;-47
2022/07/21 03:38:09;;;;;;;34.25;26.30;;;;;;;24.00;100.00;101565.91;7395324;19;20017;-47
2022/07/21 03:40:40;;;;;;;33.80;27.20;;;;;;;24.31;100.00;101576.50;7395671;19;20502;-51
2022/07/21 03:43:09;;;;;;;33.65;28.38;;;;;;;24.44;100.00;101583.41;7395236;19;20491;-47
2022/07/21 03:45:39;;;;;;;36.17;28.02;;;;;;;23.94;100.00;101581.66;7393506;19;20022;-48
2022/07/21 03:48:10;;;;;;;36.13;28.52;;;;;;;24.26;100.00;101583.28;7392352;19;20030;-50
2022/07/21 03:50:43;;;;;;;35.95;30.13;;;;;;;24.29;100.00;101585.69;7392873;19;20018;-49
2022/07/21 03:53:12;;;;;;;36.88;28.98;;;;;;;24.32;100.00;101580.03;7394856;19;20081;-49
2022/07/21 03:55:41;;;;;;;31.50;27.05;;;;;;;24.08;100.00;101578.56;7394516;19;20014;-50
2022/07/21 03:58:10;;;;;;;34.75;27.80;;;;;;;23.41;100.00;101583.56;7395251;19;20032;-48
2022/07/21 04:00:41;;;;;;;31.60;26.35;;;;;;;23.90;100.00;101585.56;7392215;19;20010;-47
2022/07/21 04:03:10;;;;;;;37.13;28.33;;;;;;;23.88;100.00;101579.53;7393941;19;20018;-45
2022/07/21 04:05:43;;;;;;;31.90;26.58;;;;;;;23.51;100.00;101580.91;7392533;19;20010;-50
2022/07/21 04:08:13;;;;;;;34.88;28.95;;;;;;;23.97;100.00;101581.38;7393063;19;20035;-49
2022/07/21 04:10:45;;;;;;;;;;;;;;;23.74;100.00;101581.56;7391182;19;20082;-52
2022/07/21 04:13:15;;;;;;;38.00;29.77;;;;;;;23.98;100.00;101581.22;7394206;19;19917;-51
2022/07/21 04:15:44;;;;;;;35.40;28.67;;;;;;;24.08;100.00;101567.88;7392589;19;20018;-51
2022/07/21 04:18:13;;;;;;;38.03;30.10;;;;;;;24.31;100.00;101570.28;7395148;19;20017;-49
2022/07/21 04:20:45;;;;;;;35.13;29.02;;;;;;;24.47;100.00;101575.97;7396819;19;20018;-47
2022/07/21 04:23:13;;;;;;;33.85;28.15;;;;;;;24.22;100.00;101573.81;7394373;19;20014;-48
2022/07/21 04:25:42;;;;;;;36.22;28.25;;;;;;;23.94;100.00;101578.97;7392149;19;20030;-51
2022/07/21 04:28:11;;;;;;;36.10;29.83;;;;;;;24.08;100.00;101583.09;7393527;19;20019;-50
2022/07/21 04:30:40;;;;;;;37.20;29.95;;;;;;;24.34;100.00;101578.91;7393936;19;20443;-50
2022/07/21 04:33:09;;;;;;;34.75;27.88;;;;;;;23.94;100.00;101589.69;7392487;19;20018;-51
2022/07/21 04:35:38;;;;;;;38.15;29.13;;;;;;;23.90;100.00;101575.75;7393442;19;20015;-50
2022/07/21 04:38:11;;;;;;;35.60;29.33;;;;;;;24.16;100.00;101585.94;7393268;19;20019;-49
2022/07/21 04:40:40;;;;;;;34.95;29.17;;;;;;;24.33;100.00;101593.28;7391868;19;20022;-49
2022/07/21 04:43:09;;;;;;;36.80;30.30;;;;;;;24.38;100.00;101586.66;7393921;19;20021;-47
2022/07/21 04:45:38;;;;;;;36.58;29.42;;;;;;;24.38;100.00;101584.81;7391773;19;20022;-48
2022/07/21 04:48:07;;;;;;;40.88;31.50;;;;;;;24.32;100.00;101585.41;7393693;19;20479;-49
2022/07/21 04:50:36;;;;;;;42.58;32.05;;;;;;;24.41;100.00;101592.56;7391844;19;20502;-51
2022/07/21 04:53:05;;;;;;;41.03;30.45;;;;;;;24.45;100.00;101582.44;7393753;19;20018;-51
2022/07/21 04:55:36;;;;;;;40.17;32.33;;;;;;;24.47;100.00;101589.34;7391482;19;20419;-49
2022/07/21 04:58:05;;;;;;;39.78;30.23;;;;;;;24.10;100.00;101581.97;7394369;19;20019;-48
2022/07/21 05:00:34;;;;;;;43.97;31.98;;;;;;;23.97;100.00;101576.00;7391346;19;20018;-52
2022/07/21 05:03:03;;;;;;;41.70;32.20;;;;;;;24.38;100.00;101567.91;7392695;19;20026;-48
2022/07/21 05:05:32;;;;;;;43.30;31.52;;;;;;;24.39;100.00;101578.50;7392235;19;20007;-49
2022/07/21 05:08:01;;;;;;;39.97;30.25;;;;;;;23.47;100.00;101577.66;7391428;19;20018;-47
2022/07/21 05:10:30;;;;;;;40.47;30.35;;;;;;;23.47;100.00;101574.97;7390170;19;20022;-47
2022/07/21 05:13:01;;;;;;;44.67;31.90;;;;;;;23.86;100.00;101566.25;7392530;19;20022;-48
2022/07/21 05:15:30;;;;;;;47.47;33.58;;;;;;;23.84;100.00;101569.06;7390269;19;20007;-50
2022/07/21 05:17:59;;;;;;;45.75;32.80;;;;;;;24.03;100.00;101564.78;7392581;19;20475;-51
2022/07/21 05:20:28;;;;;;;45.25;32.53;;;;;;;24.27;100.00;101561.72;7392462;19;20015;-51
2022/07/21 05:22:57;;;;;;;51.55;33.83;;;;;;;23.94;100.00;101563.78;7392878;19;20014;-52
2022/07/21 05:25:25;;;;;;;44.22;32.38;;;;;;;23.95;100.00;101562.78;7392317;19;20014;-52
2022/07/21 05:27:54;;;;;;;46.33;34.00;;;;;;;24.05;100.00;101556.59;7391944;19;20325;-51
2022/07/21 05:30:26;;;;;;;45.70;33.70;;;;;;;23.83;100.00;101556.66;7389387;19;20014;-51
2022/07/21 05:32:55;;;;;;;47.47;34.88;;;;;;;23.72;100.00;101548.72;7392386;19;20014;-47
2022/07/21 05:35:24;;;;;;;47.90;34.03;;;;;;;23.64;100.00;101551.25;7393209;19;20011;-48
2022/07/21 05:37:53;;;;;;;47.00;34.15;;;;;;;24.06;100.00;101550.28;7395159;19;20011;-49
2022/07/21 05:40:22;;;;;;;51.13;36.03;;;;;;;23.90;100.00;101551.66;7396850;19;20022;-46
2022/07/21 05:42:50;;;;;;;51.92;36.75;;;;;;;23.75;100.00;101551.13;7399804;19;20006;-51
2022/07/21 05:45:19;;;;;;;54.47;36.78;;;;;;;23.84;100.00;101541.44;7397064;19;20019;-47
2022/07/21 05:47:51;;;;;;;52.28;37.28;;;;;;;23.93;100.00;101542.50;7398620;19;20014;-52
2022/07/21 05:50:20;;;;;;;56.33;37.50;;;;;;;24.05;100.00;101543.22;7396843;19;20359;-49
2022/07/21 05:52:49;;;;;;;51.65;36.15;;;;;;;23.88;100.00;101545.56;7399705;19;20010;-47
2022/07/21 05:55:18;;;;;;;54.17;37.67;;;;;;;23.88;100.00;101542.06;7399675;19;20018;-49
2022/07/21 05:57:46;;;;;;;55.58;38.80;;;;;;;23.67;100.00;101540.28;7399508;19;20014;-48
2022/07/21 06:00:16;;;;;;;51.00;37.50;;;;;;;23.06;100.00;101538.44;7396839;19;20340;-46
2022/07/21 06:02:45;;;;;;;53.13;38.03;;;;;;;23.39;100.00;101541.88;7398454;19;20030;-47
2022/07/21 06:05:17;;;;;;;53.45;38.17;;;;;;;23.31;100.00;101539.84;7397064;19;20019;-46
2022/07/21 06:07:48;;;;;;;53.22;38.55;;;;;;;23.68;100.00;101531.25;7398393;19;20573;-47
2022/07/21 06:10:17;;;;;;;45.40;35.05;;;;;;;23.67;100.00;101535.78;7398257;19;20021;-47
2022/07/21 06:12:46;;;;;;;45.63;34.67;;;;;;;23.56;100.00;101540.38;7398077;19;20018;-48
2022/07/21 06:15:16;;;;;;;47.45;35.03;;;;;;;23.80;100.00;101540.03;7395217;19;20010;-47
2022/07/21 06:17:46;;;;;;;44.40;33.13;;;;;;;23.79;100.00;101543.69;7398184;19;20010;-47
2022/07/21 06:20:18;;;;;;;47.10;34.40;;;;;;;23.55;100.00;101550.22;7395825;19;20021;-51
2022/07/21 06:22:47;;;;;;;46.95;33.80;;;;;;;23.70;100.00;101552.53;7398127;19;20021;-48
2022/07/21 06:25:16;;;;;;;48.38;34.20;;;;;;;23.98;100.00;101550.94;7396358;19;20015;-52
2022/07/21 06:27:45;;;;;;;48.17;35.03;;;;;;;24.36;100.00;101551.97;7399436;19;20018;-52
2022/07/21 06:30:15;;;;;;;47.95;34.83;;;;;;;23.71;100.00;101565.75;7395526;19;20017;-49
2022/07/21 06:32:44;;;;;;;48.20;33.53;;;;;;;23.77;100.00;101554.53;7399471;19;20483;-51
2022/07/21 06:35:13;;;;;;;43.70;33.13;;;;;;;24.18;100.00;101555.34;7396370;19;20490;-48
2022/07/21 06:37:46;;;;;;;43.35;32.10;;;;;;;24.52;100.00;101552.25;7397881;19;20018;-52
2022/07/21 06:40:16;;;;;;;44.67;33.45;;;;;;;24.48;100.00;101561.56;7395404;19;20025;-49
2022/07/21 06:42:45;;;;;;;41.28;31.98;;;;;;;24.76;100.00;101564.41;7398474;19;20483;-50
2022/07/21 06:45:14;;;;;;;41.78;31.20;;;;;;;24.62;100.00;101560.31;7397916;19;20022;-47
2022/07/21 06:47:43;;;;;;;41.13;31.65;;;;;;;24.10;100.00;101565.03;7398741;19;20015;-48
2022/07/21 06:50:12;;;;;;;72.78;36.50;;;;;;;24.55;100.00;101567.22;7393844;19;20033;-48
2022/07/21 06:52:41;;;;;;;42.35;31.85;;;;;;;24.91;100.00;101572.84;7397169;19;20014;-47
2022/07/21 06:55:13;;;;;;;44.60;31.58;;;;;;;24.81;100.00;101575.53;7398901;19;20482;-49
2022/07/21 06:57:42;;;;;;;43.38;33.08;;;;;;;24.48;100.00;101591.03;7399043;19;20011;-49
2022/07/21 07:00:13;;;;;;;47.70;34.33;;;;;;;24.52;100.00;101579.03;7398696;19;20025;-49
2022/07/21 07:02:42;;;;;;;45.90;34.40;;;;;;;24.33;100.00;101587.94;7395917;19;20018;-47
2022/07/21 07:05:11;;;;;;;45.22;33.78;;;;;;;24.70;100.00;101587.28;7395299;19;20056;-51
2022/07/21 07:07:40;;;;;;;46.53;34.70;;;;;;;25.05;100.00;101596.53;7397078;19;20022;-47
2022/07/21 07:10:10;;;;;;;45.08;35.97;;;;;;;24.59;100.00;101589.22;7391643;19;20025;-48
2022/07/21 07:12:41;;;;;;;52.08;36.47;;;;;;;24.94;100.00;101595.84;7395597;19;20019;-49
2022/07/21 07:15:11;;;;;;;46.60;35.00;;;;;;;24.90;100.00;101606.00;7396646;19;20026;-49
2022/07/21 07:17:40;;;;;;;47.47;36.92;;;;;;;24.38;100.00;101606.25;7397336;19;20127;-48
2022/07/21 07:20:11;;;;;;;50.22;37.30;;;;;;;24.88;100.00;101613.34;7396896;19;20017;-48
2022/07/21 07:22:40;;;;;;;48.63;34.95;;;;;;;24.84;100.00;101603.91;7397840;19;20011;-54
2022/07/21 07:25:10;;;;;;;46.22;34.60;;;;;;;24.75;100.00;101599.41;7391977;19;20026;-57
2022/07/21 07:27:42;;;;;;;44.55;32.58;;;;;;;24.85;100.00;101600.22;7395193;19;20033;-48
2022/07/21 07:30:12;;;;;;;45.00;33.67;;;;;;;24.66;100.00;101601.94;7392469;19;20776;-51
2022/07/21 07:32:42;;;;;;;46.90;34.08;;;;;;;24.91;100.00;101601.50;7373547;19;20026;-47
2022/07/21 07:35:12;;;;;;;47.35;32.65;;;;;;;25.19;100.00;101600.59;7399330;19;20041;-53
2022/07/21 07:37:44;;;;;;;41.03;31.40;;;;;;;25.03;100.00;101605.69;7395220;19;20021;-49
2022/07/21 07:40:16;;;;;;;47.22;33.08;;;;;;;25.18;100.00;101598.91;7392598;19;20018;-48
2022/07/21 07:42:48;;;;;;;43.85;31.63;;;;;;;25.15;100.00;101601.88;7397394;19;20010;-48
2022/07/21 07:45:18;;;;;;;42.30;31.58;;;;;;;24.66;100.00;101599.25;7394595;19;20022;-50
2022/07/21 07:47:47;;;;;;;45.85;31.63;;;;;;;24.52;100.00;101597.81;7397580;19;20467;-52
2022/07/21 07:50:16;;;;;;;46.78;30.83;;;;;;;24.58;100.00;101609.78;7391599;19;20041;-50
2022/07/21 07:52:47;;;;;;;43.55;31.02;;;;;;;24.33;100.00;101604.00;7394368;19;20022;-49
2022/07/21 07:55:16;;;;;;;43.17;29.98;;;;;;;24.53;100.00;101602.19;7393627;19;20352;-53
2022/07/21 07:57:47;;;;;;;45.92;29.15;;;;;;;24.68;100.00;101591.91;7397210;19;20015;-50
2022/07/21 08:00:19;;;;;;;42.85;29.08;;;;;;;24.80;100.00;101600.66;7393996;19;20010;-47
2022/07/21 08:02:49;;;;;;;40.00;28.20;;;;;;;24.64;100.00;101598.53;7394918;19;20360;-49
2022/07/21 08:05:18;;;;;;;41.85;29.55;;;;;;;24.83;100.00;101594.16;7394134;19;20392;-47
2022/07/21 08:07:47;;;;;;;41.80;28.63;;;;;;;24.62;100.00;101594.31;7395264;19;20010;-48
2022/07/21 08:10:16;;;;;;;42.83;30.35;;;;;;;24.63;100.00;101590.63;7390610;19;20482;-47
2022/07/21 08:12:48;;;;;;;43.55;30.98;;;;;;;24.63;100.00;101596.88;7394751;19;20010;-47
2022/07/21 08:15:17;;;;;;;44.20;30.23;;;;;;;24.58;100.00;101595.56;7391128;19;20034;-47
2022/07/21 08:17:46;;;;;;;43.22;28.83;;;;;;;24.29;100.00;101586.50;7393333;19;20029;-47
2022/07/21 08:20:15;;;;;;;39.38;29.42;;;;;;;24.84;100.00;101587.81;7393402;19;20340;-47
2022/07/21 08:22:44;;;;;;;38.78;28.55;;;;;;;24.83;100.00;101586.97;7394499;19;20019;-49
2022/07/21 08:25:12;;;;;;;42.20;28.70;;;;;;;24.79;100.00;101598.13;7394380;19;20015;-48
2022/07/21 08:27:42;;;;;;;44.97;29.80;;;;;;;24.34;100.00;101596.81;7393272;19;20014;-47
2022/07/21 08:30:14;;;;;;;39.60;27.20;;;;;;;24.64;100.00;101587.81;7389066;19;20418;-48
2022/07/21 08:32:43;;;;;;;42.03;29.00;;;;;;;24.81;100.00;101583.56;7394745;19;20021;-49
2022/07/21 08:35:12;;;;;;;39.10;27.90;;;;;;;24.88;100.00;101579.34;7390607;19;20333;-49
2022/07/21 08:37:42;;;;;;;38.60;27.08;;;;;;;24.70;100.00;101578.34;7394351;19;20494;-50
2022/07/21 08:40:13;;;;;;;37.10;26.27;;;;;;;25.03;100.00;101578.88;7392802;19;20472;-49
2022/07/21 08:42:42;;;;;;;36.97;26.70;;;;;;;24.34;100.00;101575.38;7393368;19;20013;-48
2022/07/21 08:45:14;;;;;;;37.55;27.10;;;;;;;24.17;100.00;101568.88;7390507;19;20034;-47
2022/07/21 08:47:43;;;;;;;37.65;27.20;;;;;;;24.09;100.00;101585.63;7394282;19;20030;-49
2022/07/21 08:50:12;;;;;;;35.63;26.38;;;;;;;24.38;100.00;101571.44;7389314;19;20018;-52
2022/07/21 08:52:42;;;;;;;42.67;27.98;;;;;;;24.92;100.00;101573.72;7391732;19;20451;-48
2022/07/21 08:55:10;;;;;;;37.05;26.27;;;;;;;24.46;100.00;101576.94;7392293;19;20010;-47
2022/07/21 08:57:40;;;;;;;36.10;25.77;;;;;;;24.24;100.00;101582.56;7392473;19;20343;-49
2022/07/21 09:00:11;;;;;;;44.42;29.05;;;;;;;24.30;100.00;101568.59;7392611;19;20014;-47
2022/07/21 09:02:42;;;;;;;41.92;28.33;;;;;;;24.44;100.00;101573.53;7393669;19;20030;-47
2022/07/21 09:05:12;;;;;;;39.88;28.20;;;;;;;24.63;100.00;101559.34;7394711;19;20026;-51
2022/07/21 09:07:50;;;;;;;36.83;26.88;;;;;;;24.09;100.00;101571.41;7391621;19;20463;-47
2022/07/21 09:10:25;;;;;;;38.40;27.75;;;;;;;24.28;100.00;101578.63;7391241;19;20018;-53
2022/07/21 09:12:56;;;;;;;41.95;27.38;;;;;;;24.43;100.00;101584.41;7397473;19;20014;-47
2022/07/21 09:15:28;;;;;;;41.75;27.85;;;;;;;24.10;100.00;101583.78;7395843;19;20021;-46
2022/07/21 09:18:11;;;;;;;39.75;27.27;;;;;;;24.34;100.00;101583.41;7401243;19;20030;-47
2022/07/21 09:20:41;;;;;;;37.90;27.65;;;;;;;24.30;100.00;101580.19;7397859;19;20105;-52
2022/07/21 09:23:13;;;;;;;31.67;20.63;;;;;;;24.18;100.00;101592.00;7400993;19;20475;-48
2022/07/21 09:25:44;;;;;;;27.45;19.55;;;;;;;23.94;100.00;101597.72;7395473;19;20014;-46
2022/07/21 09:28:17;;;;;;;28.67;21.55;;;;;;;23.96;100.00;101599.28;7398594;19;20012;-46
2022/07/21 09:30:58;;;;;;;24.30;18.27;;;;;;;24.14;100.00;101594.13;7396859;19;20015;-48
2022/07/21 09:33:33;;;;;;;27.02;16.15;;;;;;;24.23;100.00;101602.28;7400872;19;20028;-46
2022/07/21 09:36:08;;;;;;;19.33;14.90;;;;;;;23.50;100.00;101601.47;7399927;19;20022;-45
2022/07/21 09:38:41;;;;;;;17.73;14.40;;;;;;;23.56;100.00;101608.09;7396709;19;20014;-45
2022/07/21 09:41:13;;;;;;;22.02;15.75;;;;;;;23.46;100.00;101602.72;7399864;19;20519;-46
2022/07/21 09:43:44;;;;;;;23.42;15.88;;;;;;;23.52;100.00;101612.03;7397194;19;20014;-47
2022/07/21 09:46:19;;;;;;;24.05;16.58;;;;;;;23.22;100.00;101612.84;7400243;19;20010;-49
2022/07/21 09:48:53;;;;;;;22.40;14.80;;;;;;;23.31;100.00;101612.91;7398654;19;20014;-47
2022/07/21 09:51:25;;;;;;;23.98;15.50;;;;;;;23.20;100.00;101613.00;7399939;19;20011;-47
2022/07/21 09:53:57;;;;;;;25.35;15.80;;;;;;;23.03;100.00;101613.56;7396231;19;20435;-48
2022/07/21 09:56:27;;;;;;;22.90;16.17;;;;;;;22.60;100.00;101624.19;7397781;19;20140;-49
2022/07/21 09:58:58;;;;;;;27.17;15.32;;;;;;;22.20;100.00;101623.91;7397646;19;20026;-52
2022/07/21 10:01:28;;;;;;;30.02;18.60;;;;;;;22.22;100.00;101608.59;7399460;19;20003;-46
2022/07/21 10:04:01;;;;;;;26.35;17.52;;;;;;;22.35;100.00;101616.47;7399301;19;20022;-46
2022/07/21 10:06:32;;;;;;;30.08;18.20;;;;;;;22.59;100.00;101618.97;7400735;19;20030;-47
2022/07/21 10:09:04;;;;;;;32.35;18.65;;;;;;;22.55;100.00;101622.84;7396333;19;20027;-47
2022/07/21 10:11:33;;;;;;;28.83;17.98;;;;;;;22.67;100.00;101620.97;7397667;19;20099;-48
2022/07/21 10:14:02;;;;;;;27.80;16.08;;;;;;;22.85;100.00;101621.28;7395449;19;20023;-47
2022/07/21 10:16:31;;;;;;;24.55;16.33;;;;;;;22.86;100.00;101620.31;7396589;19;20026;-47
2022/07/21 10:19:09;;;;;;;24.02;15.55;;;;;;;22.61;100.00;101625.03;7396833;19;20017;-51
2022/07/21 10:21:44;;;;;;;25.17;16.10;;;;;;;22.61;100.00;101630.38;7395441;19;20026;-50
2022/07/21 10:24:14;;;;;;;25.00;15.15;;;;;;;22.67;100.00;101620.97;7395261;19;20021;-52
2022/07/21 10:27:02;;;;;;;24.77;16.20;;;;;;;22.62;100.00;101630.25;7397563;19;20034;-51
2022/07/21 10:29:54;;;;;;;26.15;17.10;;;;;;;22.62;100.00;101627.59;7395264;19;20007;-49
2022/07/21 10:32:26;;;;;;;28.80;18.15;;;;;;;22.72;100.00;101616.97;7396512;19;20022;-48
2022/07/21 10:34:58;;;;;;;25.75;17.13;;;;;;;22.76;100.00;101623.75;7397541;19;20035;-50
2022/07/21 10:37:51;;;;;;;21.25;15.93;;;;;;;22.23;100.00;101635.16;7394445;19;20077;-49
2022/07/21 10:40:39;;;;;;;32.22;17.80;;;;;;;22.54;100.00;101629.16;7397287;19;20053;-50
2022/07/21 10:43:39;;;;;;;27.23;18.52;;;;;;;22.68;100.00;101633.38;7397016;19;20018;-53
2022/07/21 10:46:38;;;;;;;34.50;19.98;;;;;;;22.84;100.00;101633.81;7399537;19;20011;-48
2022/07/21 10:49:09;;;;;;;35.35;21.30;;;;;;;22.98;100.00;101627.28;7396349;19;20037;-49
2022/07/21 10:51:41;;;;;;;25.88;19.25;;;;;;;22.79;100.00;101636.00;7395096;19;20048;-50
2022/07/21 10:54:28;;;;;;;32.35;20.98;;;;;;;22.73;100.00;101636.53;7394840;19;20021;-51
2022/07/21 10:57:27;;;;;;;39.50;22.40;;;;;;;22.78;100.00;101634.31;7394644;19;20019;-49
2022/07/21 11:00:25;;;;;;;31.80;22.45;;;;;;;22.74;100.00;101627.53;7397253;19;20022;-48
2022/07/21 11:02:57;;;;;;;35.55;24.55;;;;;;;22.80;100.00;101633.19;7396224;19;20006;-48
2022/07/21 11:05:28;;;;;;;33.08;24.50;;;;;;;22.73;100.00;101634.69;7395285;19;20444;-52
2022/07/21 11:08:21;;;;;;;30.80;21.40;;;;;;;22.88;100.00;101639.72;7397333;19;20019;-51
2022/07/21 11:10:52;;;;;;;23.92;19.45;;;;;;;22.73;100.00;101649.88;7395640;19;20014;-50
2022/07/21 11:13:26;;;;;;;21.70;17.88;;;;;;;22.53;100.00;101648.88;7393108;19;20364;-54
2022/07/21 11:16:00;;;;;;;21.92;18.20;;;;;;;22.53;100.00;101649.69;7393936;19;20011;-50
2022/07/21 11:18:31;;;;;;;19.95;16.17;;;;;;;22.57;100.00;101647.63;7392173;19;20022;-49
2022/07/21 11:21:10;;;;;;;22.33;18.05;;;;;;;22.66;100.00;101652.22;7395053;19;20021;-48